Time,TemperatureF,DewpointF,PressureIn,WindDirection,WindDirectionDegrees,WindSpeedMPH,WindSpeedGustMPH,Humidity,HourlyPrecipIn,Conditions,Clouds,dailyrainin,SoftwareType,DateUTC
2013-05-14 00:03:00,37.0,34.6,29.98,East,88,3.0,4.0,91,0.00,,,0.00,Wunderground PWS Mod,2013-05-14 04:03:00,
2013-05-14 00:08:00,36.9,34.5,29.98,SE,144,3.0,4.0,91,0.00,,,0.00,Wunderground PWS Mod,2013-05-14 04:08:00,
2013-05-14 00:14:00,37.0,34.9,29.98,East,82,2.0,5.0,92,0.00,,,0.01,Wunderground PWS Mod,2013-05-14 04:14:00,
2013-05-14 00:15:00,36.9,35.6,29.97,East,90,0.0,5.0,95,0.02,,,0.02,Wunderground PWS Mod,2013-05-14 04:15:00,
2013-05-14 00:23:00,37.0,35.2,29.98,East,82,0.0,5.0,93,0.00,,,0.01,Wunderground PWS Mod,2013-05-14 04:23:00,
2013-05-14 00:33:00,37.0,35.4,29.98,East,82,0.0,5.0,94,0.04,,,0.02,Wunderground PWS Mod,2013-05-14 04:33:00,
2013-05-14 00:38:00,36.9,35.6,29.97,East,82,0.0,5.0,95,0.04,,,0.02,Wunderground PWS Mod,2013-05-14 04:38:00,
2013-05-14 00:43:00,36.9,35.6,29.97,East,82,0.0,5.0,95,0.00,,,0.02,Wunderground PWS Mod,2013-05-14 04:43:00,
2013-05-14 00:45:00,36.8,36.0,29.97,N/A,-737280,0.0,0.0,97,0.02,,,0.02,Wunderground PWS Mod,2013-05-14 04:45:00,
2013-05-14 00:53:00,36.8,35.8,29.97,East,82,0.0,5.0,96,0.00,,,0.02,Wunderground PWS Mod,2013-05-14 04:53:00,
2013-05-14 00:58:00,36.8,35.8,29.97,East,82,0.0,5.0,96,0.00,,,0.02,Wunderground PWS Mod,2013-05-14 04:58:00,
2013-05-14 01:03:00,36.8,36.0,29.97,East,82,0.0,5.0,97,0.00,,,0.02,Wunderground PWS Mod,2013-05-14 05:03:00,
2013-05-14 01:13:00,36.8,36.0,29.97,East,82,0.0,0.0,97,0.00,,,0.02,Wunderground PWS Mod,2013-05-14 05:13:00,
2013-05-14 01:15:00,36.3,35.8,29.97,East,90,0.0,1.0,98,0.00,,,0.02,Wunderground PWS Mod,2013-05-14 05:15:00,
2013-05-14 01:23:00,36.6,35.8,29.97,East,82,0.0,0.0,97,0.00,,,0.02,Wunderground PWS Mod,2013-05-14 05:23:00,
2013-05-14 01:28:00,36.5,36.0,29.97,East,82,0.0,0.0,98,0.00,,,0.02,Wunderground PWS Mod,2013-05-14 05:28:00,
2013-05-14 01:33:00,36.5,36.0,29.97,East,82,0.0,0.0,98,0.00,,,0.02,Wunderground PWS Mod,2013-05-14 05:33:00,
2013-05-14 01:38:00,36.3,35.8,29.97,East,82,0.0,0.0,98,0.00,,,0.02,Wunderground PWS Mod,2013-05-14 05:38:00,
2013-05-14 01:40:00,36.3,35.8,29.97,East,90,0.0,1.0,98,0.00,,,0.02,Wunderground PWS Mod,2013-05-14 05:40:00,
2013-05-14 01:43:00,36.2,35.7,29.97,East,82,0.0,1.0,98,0.00,,,0.02,Wunderground PWS Mod,2013-05-14 05:43:00,
2013-05-14 01:48:00,36.0,35.5,29.97,East,82,0.0,1.0,98,0.00,,,0.02,Wunderground PWS Mod,2013-05-14 05:48:00,
2013-05-14 01:53:00,36.0,35.5,29.96,East,82,0.0,1.0,98,0.00,,,0.02,Wunderground PWS Mod,2013-05-14 05:53:00,
2013-05-14 01:58:00,35.9,35.4,29.96,East,82,0.0,1.0,98,0.00,,,0.02,Wunderground PWS Mod,2013-05-14 05:58:00,
2013-05-14 02:03:00,35.8,35.3,29.96,East,82,0.0,1.0,98,0.00,,,0.02,Wunderground PWS Mod,2013-05-14 06:03:00,
2013-05-14 02:08:00,35.6,35.1,29.95,East,82,0.0,1.0,98,0.00,,,0.02,Wunderground PWS Mod,2013-05-14 06:08:00,
2013-05-14 02:14:00,35.5,35.0,29.95,East,82,0.0,2.0,98,0.00,,,0.02,Wunderground PWS Mod,2013-05-14 06:14:00,
2013-05-14 02:15:00,34.4,33.9,29.97,East,90,0.0,2.0,98,0.00,,,0.02,Wunderground PWS Mod,2013-05-14 06:15:00,
2013-05-14 02:23:00,35.2,34.7,29.95,East,82,0.0,2.0,98,0.00,,,0.02,Wunderground PWS Mod,2013-05-14 06:23:00,
2013-05-14 02:28:00,34.9,34.4,29.95,East,82,0.0,2.0,98,0.00,,,0.02,Wunderground PWS Mod,2013-05-14 06:28:00,
2013-05-14 02:33:00,34.7,34.2,29.95,East,82,0.0,2.0,98,0.00,,,0.02,Wunderground PWS Mod,2013-05-14 06:33:00,
2013-05-14 02:40:00,34.4,33.9,29.97,East,90,0.0,2.0,98,0.00,,,0.02,Wunderground PWS Mod,2013-05-14 06:40:00,
2013-05-14 02:43:00,34.3,34.0,29.97,East,82,0.0,2.0,99,0.00,,,0.02,Wunderground PWS Mod,2013-05-14 06:43:00,
2013-05-14 02:48:00,34.1,33.8,29.97,East,82,0.0,2.0,99,0.00,,,0.02,Wunderground PWS Mod,2013-05-14 06:48:00,
2013-05-14 02:58:00,33.8,33.5,29.97,East,82,0.0,2.0,99,0.00,,,0.02,Wunderground PWS Mod,2013-05-14 06:58:00,
2013-05-14 03:03:00,33.5,33.2,29.97,East,82,1.0,2.0,99,0.00,,,0.02,Wunderground PWS Mod,2013-05-14 07:03:00,
2013-05-14 03:08:00,33.4,33.1,29.97,East,82,1.0,2.0,99,0.00,,,0.02,Wunderground PWS Mod,2013-05-14 07:08:00,
2013-05-14 03:14:00,33.2,33.0,29.97,East,82,0.0,2.0,99,0.00,,,0.02,Wunderground PWS Mod,2013-05-14 07:14:00,
2013-05-14 03:23:00,33.2,33.0,29.97,East,82,0.0,2.0,99,0.00,,,0.02,Wunderground PWS Mod,2013-05-14 07:23:00,
2013-05-14 03:30:00,33.2,33.0,29.98,East,90,0.0,2.0,99,0.00,,,0.02,Wunderground PWS Mod,2013-05-14 07:30:00,
2013-05-14 03:33:00,33.4,33.1,29.97,East,82,0.0,2.0,99,0.00,,,0.02,Wunderground PWS Mod,2013-05-14 07:33:00,
2013-05-14 03:38:00,33.2,33.0,29.98,East,82,1.0,2.0,99,0.00,,,0.02,Wunderground PWS Mod,2013-05-14 07:38:00,
2013-05-14 03:43:00,33.1,32.9,29.98,East,82,1.0,2.0,99,0.00,,,0.02,Wunderground PWS Mod,2013-05-14 07:43:00,
2013-05-14 03:45:00,32.8,32.8,29.98,East,90,0.0,3.0,100,0.00,,,0.02,Wunderground PWS Mod,2013-05-14 07:45:00,
2013-05-14 03:53:00,32.9,32.7,29.98,East,82,1.0,2.0,99,0.00,,,0.02,Wunderground PWS Mod,2013-05-14 07:53:00,
2013-05-14 03:58:00,32.9,32.7,29.98,East,82,0.0,2.0,99,0.00,,,0.02,Wunderground PWS Mod,2013-05-14 07:58:00,
2013-05-14 04:08:00,32.8,32.8,29.98,East,82,0.0,2.0,100,0.00,,,0.02,Wunderground PWS Mod,2013-05-14 08:08:00,
2013-05-14 04:14:00,32.8,32.8,29.98,East,82,1.0,3.0,100,0.00,,,0.02,Wunderground PWS Mod,2013-05-14 08:14:00,
2013-05-14 04:20:00,32.9,32.9,29.99,East,90,0.0,3.0,100,0.00,,,0.02,Wunderground PWS Mod,2013-05-14 08:20:00,
2013-05-14 04:23:00,32.9,32.9,29.99,East,82,0.0,3.0,100,0.00,,,0.02,Wunderground PWS Mod,2013-05-14 08:23:00,
2013-05-14 04:28:00,32.9,32.9,29.99,East,82,0.0,3.0,100,0.00,,,0.02,Wunderground PWS Mod,2013-05-14 08:28:00,
2013-05-14 04:33:00,32.9,32.9,29.99,East,82,0.0,3.0,100,0.00,,,0.02,Wunderground PWS Mod,2013-05-14 08:33:00,
2013-05-14 04:38:00,32.9,32.9,29.99,East,82,0.0,3.0,100,0.00,,,0.02,Wunderground PWS Mod,2013-05-14 08:38:00,
2013-05-14 04:43:00,32.8,32.8,29.99,East,82,0.0,3.0,100,0.00,,,0.02,Wunderground PWS Mod,2013-05-14 08:43:00,
2013-05-14 04:45:00,32.2,32.2,30.00,East,90,0.0,2.0,100,0.00,,,0.02,Wunderground PWS Mod,2013-05-14 08:45:00,
2013-05-14 04:53:00,32.7,32.7,29.99,East,82,0.0,3.0,100,0.00,,,0.02,Wunderground PWS Mod,2013-05-14 08:53:00,
2013-05-14 04:58:00,32.5,32.5,29.99,East,82,0.0,3.0,100,0.00,,,0.02,Wunderground PWS Mod,2013-05-14 08:58:00,
2013-05-14 05:03:00,32.4,32.4,29.99,East,82,0.0,3.0,100,0.00,,,0.02,Wunderground PWS Mod,2013-05-14 09:03:00,
2013-05-14 05:08:00,32.2,32.2,30.00,East,82,0.0,3.0,100,0.00,,,0.02,Wunderground PWS Mod,2013-05-14 09:08:00,
2013-05-14 05:13:00,32.2,32.2,30.00,East,82,0.0,2.0,100,0.00,,,0.02,Wunderground PWS Mod,2013-05-14 09:13:00,
2013-05-14 05:20:00,31.9,31.9,30.00,East,90,0.0,3.0,100,0.00,,,0.02,Wunderground PWS Mod,2013-05-14 09:20:00,
2013-05-14 05:23:00,32.2,32.2,30.00,East,82,0.0,2.0,100,0.00,,,0.02,Wunderground PWS Mod,2013-05-14 09:23:00,
2013-05-14 05:28:00,32.1,32.1,30.00,East,82,0.0,2.0,100,0.00,,,0.02,Wunderground PWS Mod,2013-05-14 09:28:00,
2013-05-14 05:33:00,31.9,31.9,30.00,East,82,1.0,2.0,100,0.00,,,0.02,Wunderground PWS Mod,2013-05-14 09:33:00,
2013-05-14 05:38:00,31.9,31.9,30.00,East,82,1.0,2.0,100,0.00,,,0.02,Wunderground PWS Mod,2013-05-14 09:38:00,
2013-05-14 05:40:00,31.9,31.9,30.00,East,90,0.0,3.0,100,0.00,,,0.02,Wunderground PWS Mod,2013-05-14 09:40:00,
2013-05-14 05:43:00,31.8,31.8,30.00,East,82,1.0,3.0,100,0.00,,,0.02,Wunderground PWS Mod,2013-05-14 09:43:00,
2013-05-14 05:48:00,31.6,31.6,30.00,East,82,1.0,3.0,100,0.00,,,0.02,Wunderground PWS Mod,2013-05-14 09:48:00,
2013-05-14 05:58:00,31.5,31.5,30.00,East,82,0.0,3.0,100,0.00,,,0.02,Wunderground PWS Mod,2013-05-14 09:58:00,
2013-05-14 06:03:00,31.5,31.5,30.00,East,82,0.0,3.0,100,0.00,,,0.02,Wunderground PWS Mod,2013-05-14 10:03:00,
2013-05-14 06:08:00,31.3,31.3,30.01,East,82,0.0,3.0,100,0.00,,,0.02,Wunderground PWS Mod,2013-05-14 10:08:00,
2013-05-14 06:14:00,31.5,31.5,30.01,East,82,0.0,3.0,100,0.00,,,0.02,Wunderground PWS Mod,2013-05-14 10:14:00,
2013-05-14 06:15:00,31.6,31.6,30.02,East,90,0.0,2.0,100,0.00,,,0.02,Wunderground PWS Mod,2013-05-14 10:15:00,
2013-05-14 06:23:00,31.5,31.5,30.01,East,82,0.0,3.0,100,0.00,,,0.02,Wunderground PWS Mod,2013-05-14 10:23:00,
2013-05-14 06:28:00,31.5,31.5,30.01,East,82,0.0,3.0,100,0.00,,,0.02,Wunderground PWS Mod,2013-05-14 10:28:00,
2013-05-14 06:33:00,31.6,31.6,30.01,East,82,0.0,3.0,100,0.00,,,0.02,Wunderground PWS Mod,2013-05-14 10:33:00,
2013-05-14 06:43:00,31.5,31.5,30.02,East,82,0.0,2.0,100,0.00,,,0.02,Wunderground PWS Mod,2013-05-14 10:43:00,
2013-05-14 06:50:00,32.1,32.1,30.02,East,90,0.0,2.0,100,0.00,,,0.02,Wunderground PWS Mod,2013-05-14 10:50:00,
2013-05-14 06:53:00,31.5,31.5,30.02,East,82,0.0,2.0,100,0.00,,,0.02,Wunderground PWS Mod,2013-05-14 10:53:00,
2013-05-14 06:58:00,31.8,31.8,30.02,East,82,0.0,2.0,100,0.00,,,0.02,Wunderground PWS Mod,2013-05-14 10:58:00,
2013-05-14 07:03:00,31.9,31.9,30.02,East,82,0.0,2.0,100,0.00,,,0.02,Wunderground PWS Mod,2013-05-14 11:03:00,
2013-05-14 07:08:00,32.1,32.1,30.02,East,82,0.0,2.0,100,0.00,,,0.02,Wunderground PWS Mod,2013-05-14 11:08:00,
2013-05-14 07:14:00,32.2,32.2,30.02,East,82,0.0,2.0,100,0.00,,,0.02,Wunderground PWS Mod,2013-05-14 11:14:00,
2013-05-14 07:23:00,32.5,32.5,30.02,East,82,0.0,2.0,100,0.00,,,0.02,Wunderground PWS Mod,2013-05-14 11:23:00,
2013-05-14 07:25:00,33.1,33.1,30.02,East,90,0.0,1.0,100,0.00,,,0.02,Wunderground PWS Mod,2013-05-14 11:25:00,
2013-05-14 07:28:00,32.8,32.8,30.02,East,82,0.0,2.0,100,0.00,,,0.02,Wunderground PWS Mod,2013-05-14 11:28:00,
2013-05-14 07:33:00,32.9,32.9,30.02,East,82,0.0,2.0,100,0.00,,,0.02,Wunderground PWS Mod,2013-05-14 11:33:00,
2013-05-14 07:38:00,33.1,33.1,30.02,East,82,0.0,2.0,100,0.00,,,0.02,Wunderground PWS Mod,2013-05-14 11:38:00,
2013-05-14 07:43:00,33.4,33.4,30.02,East,82,0.0,1.0,100,0.00,,,0.02,Wunderground PWS Mod,2013-05-14 11:43:00,
2013-05-14 07:45:00,34.7,34.7,30.02,East,90,0.0,2.0,100,0.00,,,0.02,Wunderground PWS Mod,2013-05-14 11:45:00,
2013-05-14 07:53:00,34.0,34.0,30.02,East,82,0.0,1.0,100,0.00,,,0.02,Wunderground PWS Mod,2013-05-14 11:53:00,
2013-05-14 07:58:00,34.1,34.1,30.02,East,82,1.0,1.0,100,0.00,,,0.02,Wunderground PWS Mod,2013-05-14 11:58:00,
2013-05-14 08:03:00,34.3,34.3,30.02,East,82,1.0,1.0,100,0.00,,,0.02,Wunderground PWS Mod,2013-05-14 12:03:00,
2013-05-14 08:14:00,35.8,35.8,30.02,East,82,0.0,2.0,100,0.00,,,0.02,Wunderground PWS Mod,2013-05-14 12:14:00,
2013-05-14 08:23:00,37.3,37.3,30.03,East,82,0.0,2.0,100,0.00,,,0.02,Wunderground PWS Mod,2013-05-14 12:23:00,
2013-05-14 08:25:00,38.2,37.7,30.02,East,90,0.0,3.0,98,0.00,,,0.02,Wunderground PWS Mod,2013-05-14 12:25:00,
2013-05-14 08:28:00,38.0,38.0,30.03,East,82,0.0,2.0,100,0.00,,,0.02,Wunderground PWS Mod,2013-05-14 12:28:00,
2013-05-14 08:33:00,38.0,38.0,30.03,East,82,0.0,2.0,100,0.00,,,0.02,Wunderground PWS Mod,2013-05-14 12:33:00,
2013-05-14 08:38:00,38.2,37.7,30.02,East,82,1.0,2.0,98,0.00,,,0.02,Wunderground PWS Mod,2013-05-14 12:38:00,
2013-05-14 08:43:00,39.1,38.1,30.02,East,82,0.0,3.0,96,0.00,,,0.02,Wunderground PWS Mod,2013-05-14 12:43:00,
2013-05-14 08:45:00,41.2,33.9,30.01,ESE,113,1.0,4.0,75,0.00,,,0.02,Wunderground PWS Mod,2013-05-14 12:45:00,
2013-05-14 08:53:00,40.1,35.7,30.02,ESE,103,1.0,3.0,84,0.00,,,0.02,Wunderground PWS Mod,2013-05-14 12:53:00,
2013-05-14 08:58:00,40.3,34.3,30.02,ESE,103,1.0,3.0,79,0.00,,,0.02,Wunderground PWS Mod,2013-05-14 12:58:00,
2013-05-14 09:03:00,40.8,34.1,30.02,ESE,103,0.0,3.0,77,0.00,,,0.02,Wunderground PWS Mod,2013-05-14 13:03:00,
2013-05-14 09:08:00,41.2,33.5,30.01,ESE,103,1.0,3.0,74,0.00,,,0.02,Wunderground PWS Mod,2013-05-14 13:08:00,
2013-05-14 09:14:00,41.8,30.1,30.01,NE,51,2.0,9.0,63,0.00,,,0.02,Wunderground PWS Mod,2013-05-14 13:14:00,
2013-05-14 09:20:00,43.3,27.3,30.00,NE,45,5.0,12.0,53,0.00,,,0.02,Wunderground PWS Mod,2013-05-14 13:20:00,
2013-05-14 09:23:00,42.3,27.3,30.01,ENE,60,6.0,6.0,55,0.00,,,0.02,Wunderground PWS Mod,2013-05-14 13:23:00,
2013-05-14 09:28:00,42.8,27.3,30.01,NE,44,5.0,5.0,54,0.00,,,0.02,Wunderground PWS Mod,2013-05-14 13:28:00,
2013-05-14 09:33:00,43.2,28.1,30.01,North,355,4.0,11.0,55,0.00,,,0.02,Wunderground PWS Mod,2013-05-14 13:33:00,
2013-05-14 09:38:00,43.3,27.8,30.00,North,350,5.0,9.0,54,0.00,,,0.02,Wunderground PWS Mod,2013-05-14 13:38:00,
2013-05-14 09:43:00,43.5,28.4,30.00,NE,34,6.0,12.0,55,0.00,,,0.02,Wunderground PWS Mod,2013-05-14 13:43:00,
2013-05-14 09:45:00,44.5,27.0,30.00,NNE,23,3.0,14.0,50,0.00,,,0.02,Wunderground PWS Mod,2013-05-14 13:45:00,
2013-05-14 09:53:00,44.5,27.0,30.00,NW,311,3.0,12.0,50,0.00,,,0.02,Wunderground PWS Mod,2013-05-14 13:53:00,
2013-05-14 09:58:00,44.2,25.2,30.00,West,269,5.0,12.0,47,0.00,,,0.02,Wunderground PWS Mod,2013-05-14 13:58:00,
2013-05-14 10:03:00,44.2,25.7,30.00,WSW,242,4.0,12.0,48,0.00,,,0.02,Wunderground PWS Mod,2013-05-14 14:03:00,
2013-05-14 10:14:00,45.1,25.5,30.00,North,355,3.0,14.0,46,0.00,,,0.02,Wunderground PWS Mod,2013-05-14 14:14:00,
2013-05-14 10:23:00,46.1,28.0,29.99,North,355,3.0,14.0,49,0.00,,,0.02,Wunderground PWS Mod,2013-05-14 14:23:00,
2013-05-14 10:25:00,46.1,24.8,29.99,NNW,338,4.0,15.0,43,0.00,,,0.02,Wunderground PWS Mod,2013-05-14 14:25:00,
2013-05-14 10:33:00,45.8,26.7,29.99,NNE,16,4.0,14.0,47,0.00,,,0.02,Wunderground PWS Mod,2013-05-14 14:33:00,
2013-05-14 10:40:00,46.1,24.8,29.99,NNW,338,4.0,15.0,43,0.00,,,0.02,Wunderground PWS Mod,2013-05-14 14:40:00,
2013-05-14 10:43:00,46.4,24.5,29.98,NNE,24,3.0,15.0,42,0.00,,,0.02,Wunderground PWS Mod,2013-05-14 14:43:00,
2013-05-14 10:48:00,46.4,23.9,29.98,South,173,4.0,15.0,41,0.00,,,0.02,Wunderground PWS Mod,2013-05-14 14:48:00,
2013-05-14 10:58:00,47.1,25.7,29.98,WNW,302,3.0,15.0,43,0.00,,,0.02,Wunderground PWS Mod,2013-05-14 14:58:00,
2013-05-14 11:03:00,47.7,23.3,29.98,NW,304,4.0,15.0,38,0.00,,,0.02,Wunderground PWS Mod,2013-05-14 15:03:00,
2013-05-14 11:08:00,48.0,24.2,29.97,NW,314,5.0,15.0,39,0.00,,,0.02,Wunderground PWS Mod,2013-05-14 15:08:00,
2013-05-14 11:14:00,47.7,23.3,29.97,West,261,5.0,14.0,38,0.00,,,0.02,Wunderground PWS Mod,2013-05-14 15:14:00,
2013-05-14 11:15:00,48.6,24.7,29.97,WSW,248,4.0,17.0,39,0.00,,,0.02,Wunderground PWS Mod,2013-05-14 15:15:00,
2013-05-14 11:23:00,47.9,24.7,29.97,ENE,74,3.0,14.0,40,0.00,,,0.02,Wunderground PWS Mod,2013-05-14 15:23:00,
2013-05-14 11:33:00,48.6,22.8,29.97,WSW,242,5.0,14.0,36,0.00,,,0.02,Wunderground PWS Mod,2013-05-14 15:33:00,
2013-05-14 11:38:00,48.6,24.7,29.97,SW,216,4.0,14.0,39,0.00,,,0.02,Wunderground PWS Mod,2013-05-14 15:38:00,
2013-05-14 11:40:00,48.6,24.7,29.97,WSW,248,4.0,17.0,39,0.00,,,0.02,Wunderground PWS Mod,2013-05-14 15:40:00,
2013-05-14 11:43:00,48.5,24.0,29.97,NW,304,4.0,17.0,38,0.00,,,0.02,Wunderground PWS Mod,2013-05-14 15:43:00,
2013-05-14 11:48:00,48.3,26.2,29.97,WSW,245,5.0,17.0,42,0.00,,,0.02,Wunderground PWS Mod,2013-05-14 15:48:00,
2013-05-14 11:53:00,48.9,24.4,29.98,WSW,240,4.0,17.0,38,0.00,,,0.02,Wunderground PWS Mod,2013-05-14 15:53:00,
2013-05-14 12:03:00,48.6,22.1,29.98,West,265,5.0,17.0,35,0.00,,,0.02,Wunderground PWS Mod,2013-05-14 16:03:00,
2013-05-14 12:08:00,48.3,22.5,29.98,West,273,6.0,17.0,36,0.00,,,0.02,Wunderground PWS Mod,2013-05-14 16:08:00,
2013-05-14 12:14:00,49.1,25.2,29.98,WSW,248,4.0,17.0,39,0.00,,,0.02,Wunderground PWS Mod,2013-05-14 16:14:00,
2013-05-14 12:23:00,49.6,23.0,29.97,West,280,4.0,17.0,35,0.00,,,0.02,Wunderground PWS Mod,2013-05-14 16:23:00,
2013-05-14 12:25:00,50.1,24.8,29.97,WNW,293,4.0,15.0,37,0.00,,,0.02,Wunderground PWS Mod,2013-05-14 16:25:00,
2013-05-14 12:28:00,49.8,22.5,29.97,West,281,4.0,17.0,34,0.00,,,0.02,Wunderground PWS Mod,2013-05-14 16:28:00,
2013-05-14 12:33:00,50.1,22.8,29.97,NW,309,5.0,17.0,34,0.00,,,0.02,Wunderground PWS Mod,2013-05-14 16:33:00,
2013-05-14 12:38:00,50.2,24.9,29.97,West,270,4.0,17.0,37,0.00,,,0.02,Wunderground PWS Mod,2013-05-14 16:38:00,
2013-05-14 12:43:00,51.0,22.1,29.97,NNW,327,4.0,15.0,32,0.00,,,0.02,Wunderground PWS Mod,2013-05-14 16:43:00,
2013-05-14 12:45:00,51.1,23.7,29.97,SW,225,4.0,12.0,34,0.00,,,0.02,Wunderground PWS Mod,2013-05-14 16:45:00,
2013-05-14 12:53:00,51.1,23.7,29.96,SW,227,6.0,15.0,34,0.00,,,0.02,Wunderground PWS Mod,2013-05-14 16:53:00,
2013-05-14 12:58:00,51.3,25.2,29.96,SSE,147,5.0,15.0,36,0.00,,,0.02,Wunderground PWS Mod,2013-05-14 16:58:00,
2013-05-14 13:03:00,51.3,26.5,29.96,ESE,114,3.0,15.0,38,0.00,,,0.02,Wunderground PWS Mod,2013-05-14 17:03:00,
2013-05-14 13:08:00,51.1,23.0,29.97,SE,140,3.0,15.0,33,0.00,,,0.02,Wunderground PWS Mod,2013-05-14 17:08:00,
2013-05-14 13:14:00,51.0,23.6,29.97,WSW,255,4.0,16.0,34,0.00,,,0.02,Wunderground PWS Mod,2013-05-14 17:14:00,
2013-05-14 13:15:00,51.9,22.9,29.96,West,270,5.0,17.0,32,0.00,,,0.02,Wunderground PWS Mod,2013-05-14 17:15:00,
2013-05-14 13:23:00,51.0,23.6,29.97,WSW,246,7.0,12.0,34,0.00,,,0.02,Wunderground PWS Mod,2013-05-14 17:23:00,
2013-05-14 13:28:00,51.4,23.2,29.97,SSW,196,5.0,12.0,33,0.00,,,0.02,Wunderground PWS Mod,2013-05-14 17:28:00,
2013-05-14 13:33:00,52.0,21.5,29.97,NW,306,4.0,12.0,30,0.00,,,0.02,Wunderground PWS Mod,2013-05-14 17:33:00,
2013-05-14 13:38:00,51.9,24.4,29.96,SSW,213,4.0,12.0,34,0.00,,,0.02,Wunderground PWS Mod,2013-05-14 17:38:00,
2013-05-14 13:43:00,52.0,23.0,29.96,NNW,344,5.0,17.0,32,0.00,,,0.02,Wunderground PWS Mod,2013-05-14 17:43:00,
2013-05-14 13:45:00,51.6,21.1,29.95,West,270,5.0,18.0,30,0.00,,,0.02,Wunderground PWS Mod,2013-05-14 17:45:00,
2013-05-14 13:53:00,51.6,22.7,29.96,NNE,24,7.0,17.0,32,0.00,,,0.02,Wunderground PWS Mod,2013-05-14 17:53:00,
2013-05-14 14:03:00,52.2,23.2,29.96,WSW,250,5.0,17.0,32,0.00,,,0.02,Wunderground PWS Mod,2013-05-14 18:03:00,
2013-05-14 14:08:00,51.4,21.7,29.95,NW,309,5.0,17.0,31,0.00,,,0.02,Wunderground PWS Mod,2013-05-14 18:08:00,
2013-05-14 14:14:00,51.4,21.7,29.95,WNW,296,5.0,18.0,31,0.00,,,0.02,Wunderground PWS Mod,2013-05-14 18:14:00,
2013-05-14 14:20:00,52.3,21.7,29.95,West,270,5.0,17.0,30,0.00,,,0.02,Wunderground PWS Mod,2013-05-14 18:20:00,
2013-05-14 14:23:00,51.1,21.5,29.96,North,5,5.0,18.0,31,0.00,,,0.02,Wunderground PWS Mod,2013-05-14 18:23:00,
2013-05-14 14:28:00,51.1,22.2,29.96,South,178,4.0,18.0,32,0.00,,,0.02,Wunderground PWS Mod,2013-05-14 18:28:00,
2013-05-14 14:33:00,52.3,22.5,29.96,West,268,4.0,18.0,31,0.00,,,0.02,Wunderground PWS Mod,2013-05-14 18:33:00,
2013-05-14 14:38:00,52.3,21.7,29.95,WSW,248,5.0,18.0,30,0.00,,,0.02,Wunderground PWS Mod,2013-05-14 18:38:00,
2013-05-14 14:40:00,52.3,21.7,29.95,West,270,5.0,17.0,30,0.00,,,0.02,Wunderground PWS Mod,2013-05-14 18:40:00,
2013-05-14 14:43:00,52.2,21.7,29.95,South,191,5.0,17.0,30,0.00,,,0.02,Wunderground PWS Mod,2013-05-14 18:43:00,
2013-05-14 14:48:00,51.6,23.4,29.95,WSW,250,5.0,17.0,33,0.00,,,0.02,Wunderground PWS Mod,2013-05-14 18:48:00,
2013-05-14 14:53:00,52.2,23.2,29.95,NW,326,5.0,17.0,32,0.00,,,0.02,Wunderground PWS Mod,2013-05-14 18:53:00,
2013-05-14 14:58:00,52.6,22.8,29.95,WSW,240,4.0,17.0,31,0.00,,,0.02,Wunderground PWS Mod,2013-05-14 18:58:00,
2013-05-14 15:03:00,52.8,21.4,29.95,NNE,12,4.0,17.0,29,0.00,,,0.02,Wunderground PWS Mod,2013-05-14 19:03:00,
2013-05-14 15:08:00,52.0,20.7,29.95,NNE,15,4.0,17.0,29,0.00,,,0.02,Wunderground PWS Mod,2013-05-14 19:08:00,
2013-05-14 15:14:00,51.7,21.2,29.95,WSW,244,4.0,21.0,30,0.00,,,0.02,Wunderground PWS Mod,2013-05-14 19:14:00,
2013-05-14 15:23:00,53.3,21.8,29.94,West,259,4.0,21.0,29,0.00,,,0.02,Wunderground PWS Mod,2013-05-14 19:23:00,
2013-05-14 15:25:00,53.6,22.1,29.94,WSW,248,4.0,14.0,29,0.00,,,0.02,Wunderground PWS Mod,2013-05-14 19:25:00,
2013-05-14 15:33:00,53.1,21.6,29.94,South,178,5.0,21.0,29,0.00,,,0.02,Wunderground PWS Mod,2013-05-14 19:33:00,
2013-05-14 15:38:00,53.8,22.2,29.94,SSW,195,3.0,21.0,29,0.00,,,0.02,Wunderground PWS Mod,2013-05-14 19:38:00,
2013-05-14 15:43:00,54.1,21.7,29.94,WNW,292,4.0,14.0,28,0.00,,,0.02,Wunderground PWS Mod,2013-05-14 19:43:00,
2013-05-14 15:45:00,53.2,21.7,29.93,WSW,248,5.0,17.0,29,0.00,,,0.02,Wunderground PWS Mod,2013-05-14 19:45:00,
2013-05-14 15:53:00,53.8,20.6,29.94,West,260,5.0,14.0,27,0.00,,,0.02,Wunderground PWS Mod,2013-05-14 19:53:00,
2013-05-14 15:58:00,53.3,20.1,29.94,West,271,6.0,14.0,27,0.00,,,0.02,Wunderground PWS Mod,2013-05-14 19:58:00,
2013-05-14 16:03:00,53.1,20.8,29.94,NNW,331,5.0,14.0,28,0.00,,,0.02,Wunderground PWS Mod,2013-05-14 20:03:00,
2013-05-14 16:08:00,53.3,21.8,29.93,North,355,5.0,14.0,29,0.00,,,0.02,Wunderground PWS Mod,2013-05-14 20:08:00,
2013-05-14 16:14:00,53.5,19.4,29.93,NNW,346,4.0,17.0,26,0.00,,,0.02,Wunderground PWS Mod,2013-05-14 20:14:00,
2013-05-14 16:20:00,53.2,20.9,29.92,NNE,23,4.0,15.0,28,0.00,,,0.02,Wunderground PWS Mod,2013-05-14 20:20:00,
2013-05-14 16:23:00,53.6,21.2,29.93,West,263,5.0,17.0,28,0.00,,,0.02,Wunderground PWS Mod,2013-05-14 20:23:00,
2013-05-14 16:28:00,53.2,20.9,29.93,NW,313,3.0,17.0,28,0.00,,,0.02,Wunderground PWS Mod,2013-05-14 20:28:00,
2013-05-14 16:33:00,53.2,20.9,29.93,NNE,26,4.0,17.0,28,0.00,,,0.02,Wunderground PWS Mod,2013-05-14 20:33:00,
2013-05-14 16:38:00,53.2,20.9,29.92,North,350,4.0,17.0,28,0.00,,,0.02,Wunderground PWS Mod,2013-05-14 20:38:00,
2013-05-14 16:43:00,53.6,21.2,29.92,WSW,244,4.0,15.0,28,0.00,,,0.02,Wunderground PWS Mod,2013-05-14 20:43:00,
2013-05-14 16:45:00,54.1,21.7,29.92,West,270,3.0,13.0,28,0.00,,,0.02,Wunderground PWS Mod,2013-05-14 20:45:00,
2013-05-14 16:53:00,53.1,23.2,29.92,WSW,254,4.0,15.0,31,0.00,,,0.02,Wunderground PWS Mod,2013-05-14 20:53:00,
2013-05-14 17:03:00,53.8,20.6,29.92,WNW,293,2.0,15.0,27,0.00,,,0.02,Wunderground PWS Mod,2013-05-14 21:03:00,
2013-05-14 17:08:00,53.9,20.6,29.92,ESE,121,2.0,15.0,27,0.00,,,0.02,Wunderground PWS Mod,2013-05-14 21:08:00,
2013-05-14 17:14:00,53.5,21.2,29.92,NNE,30,4.0,13.0,28,0.00,,,0.02,Wunderground PWS Mod,2013-05-14 21:14:00,
2013-05-14 17:15:00,53.1,21.6,29.92,NNE,23,5.0,13.0,29,0.00,,,0.02,Wunderground PWS Mod,2013-05-14 21:15:00,
2013-05-14 17:23:00,53.1,21.6,29.92,NNE,28,5.0,13.0,29,0.00,,,0.02,Wunderground PWS Mod,2013-05-14 21:23:00,
2013-05-14 17:28:00,53.2,21.7,29.92,NW,314,5.0,13.0,29,0.00,,,0.02,Wunderground PWS Mod,2013-05-14 21:28:00,
2013-05-14 17:38:00,53.1,21.6,29.92,NNE,21,4.0,13.0,29,0.00,,,0.02,Wunderground PWS Mod,2013-05-14 21:38:00,
2013-05-14 17:40:00,53.1,21.6,29.92,NNE,23,5.0,13.0,29,0.00,,,0.02,Wunderground PWS Mod,2013-05-14 21:40:00,
2013-05-14 17:43:00,52.8,20.5,29.92,North,360,5.0,13.0,28,0.00,,,0.02,Wunderground PWS Mod,2013-05-14 21:43:00,
2013-05-14 17:48:00,52.6,20.4,29.92,NNE,25,5.0,13.0,28,0.00,,,0.02,Wunderground PWS Mod,2013-05-14 21:48:00,
2013-05-14 17:58:00,52.6,22.0,29.91,WNW,288,7.0,13.0,30,0.00,,,0.02,Wunderground PWS Mod,2013-05-14 21:58:00,
2013-05-14 18:08:00,53.5,21.2,29.91,NNW,331,1.0,13.0,28,0.00,,,0.02,Wunderground PWS Mod,2013-05-14 22:08:00,
2013-05-14 18:14:00,53.5,21.2,29.91,WSW,246,2.0,13.0,28,0.00,,,0.02,Wunderground PWS Mod,2013-05-14 22:14:00,
2013-05-14 18:15:00,53.1,20.8,29.91,WSW,248,3.0,12.0,28,0.00,,,0.02,Wunderground PWS Mod,2013-05-14 22:15:00,
2013-05-14 18:23:00,53.6,22.9,29.91,West,259,2.0,13.0,30,0.00,,,0.02,Wunderground PWS Mod,2013-05-14 22:23:00,
2013-05-14 18:28:00,53.8,23.8,29.91,South,179,2.0,13.0,31,0.00,,,0.02,Wunderground PWS Mod,2013-05-14 22:28:00,
2013-05-14 18:33:00,53.6,21.2,29.91,NNE,19,2.0,13.0,28,0.00,,,0.02,Wunderground PWS Mod,2013-05-14 22:33:00,
2013-05-14 18:38:00,53.1,21.6,29.91,West,273,4.0,13.0,29,0.00,,,0.02,Wunderground PWS Mod,2013-05-14 22:38:00,
2013-05-14 18:43:00,52.6,22.8,29.91,WNW,292,5.0,12.0,31,0.00,,,0.02,Wunderground PWS Mod,2013-05-14 22:43:00,
2013-05-14 18:50:00,51.9,25.1,29.92,West,270,1.0,10.0,35,0.00,,,0.02,Wunderground PWS Mod,2013-05-14 22:50:00,
2013-05-14 18:53:00,52.3,23.3,29.92,West,267,2.0,12.0,32,0.00,,,0.02,Wunderground PWS Mod,2013-05-14 22:53:00,
2013-05-14 18:58:00,52.3,24.7,29.92,NW,309,1.0,12.0,34,0.00,,,0.02,Wunderground PWS Mod,2013-05-14 22:58:00,
2013-05-14 19:03:00,51.9,22.9,29.92,West,267,1.0,12.0,32,0.00,,,0.02,Wunderground PWS Mod,2013-05-14 23:03:00,
2013-05-14 19:13:00,51.9,22.9,29.92,NNE,30,1.0,10.0,32,0.00,,,0.02,Wunderground PWS Mod,2013-05-14 23:13:00,
2013-05-14 19:15:00,50.8,24.1,29.93,NNE,23,1.0,10.0,35,0.00,,,0.02,Wunderground PWS Mod,2013-05-14 23:15:00,
2013-05-14 19:23:00,51.9,22.9,29.92,WNW,297,1.0,10.0,32,0.00,,,0.02,Wunderground PWS Mod,2013-05-14 23:23:00,
2013-05-14 19:33:00,51.1,23.0,29.92,NNW,337,0.0,10.0,33,0.00,,,0.02,Wunderground PWS Mod,2013-05-14 23:33:00,
2013-05-14 19:43:00,50.4,23.1,29.93,NNE,19,1.0,10.0,34,0.00,,,0.02,Wunderground PWS Mod,2013-05-14 23:43:00,
2013-05-14 19:45:00,48.0,28.7,29.94,NNE,23,0.0,4.0,47,0.00,,,0.02,Wunderground PWS Mod,2013-05-14 23:45:00,
2013-05-14 19:53:00,49.8,25.2,29.94,NNE,32,1.0,10.0,38,0.00,,,0.02,Wunderground PWS Mod,2013-05-14 23:53:00,
2013-05-14 19:58:00,49.2,29.3,29.94,NNE,32,0.0,10.0,46,0.00,,,0.02,Wunderground PWS Mod,2013-05-14 23:58:00,
2013-05-14 20:03:00,48.8,30.5,29.94,NNE,32,0.0,10.0,49,0.00,,,0.02,Wunderground PWS Mod,2013-05-15 00:03:00,
2013-05-14 20:08:00,48.0,28.7,29.94,NNE,32,0.0,10.0,47,0.00,,,0.02,Wunderground PWS Mod,2013-05-15 00:08:00,
2013-05-14 20:14:00,47.3,31.0,29.94,NNE,32,0.0,4.0,53,0.00,,,0.02,Wunderground PWS Mod,2013-05-15 00:14:00,
2013-05-14 20:20:00,43.8,31.2,29.95,N/A,-737280,0.0,0.0,61,0.00,,,0.02,Wunderground PWS Mod,2013-05-15 00:20:00,
2013-05-14 20:23:00,46.1,29.4,29.95,NNE,32,0.0,4.0,52,0.00,,,0.02,Wunderground PWS Mod,2013-05-15 00:23:00,
2013-05-14 20:28:00,45.4,31.0,29.95,NNE,32,0.0,4.0,57,0.00,,,0.02,Wunderground PWS Mod,2013-05-15 00:28:00,
2013-05-14 20:38:00,43.6,31.0,29.95,NNE,32,0.0,4.0,61,0.00,,,0.02,Wunderground PWS Mod,2013-05-15 00:38:00,
2013-05-14 20:43:00,42.8,30.7,29.95,NNE,32,0.0,0.0,62,0.00,,,0.02,Wunderground PWS Mod,2013-05-15 00:43:00,
2013-05-14 20:48:00,41.9,30.6,29.95,NNE,32,0.0,0.0,64,0.00,,,0.02,Wunderground PWS Mod,2013-05-15 00:48:00,
2013-05-14 20:55:00,40.3,30.9,29.96,NNE,23,0.0,1.0,69,0.00,,,0.02,Wunderground PWS Mod,2013-05-15 00:55:00,
2013-05-14 20:58:00,41.1,30.6,29.95,NNE,32,0.0,0.0,66,0.00,,,0.02,Wunderground PWS Mod,2013-05-15 00:58:00,
2013-05-14 21:03:00,40.8,31.1,29.95,NNE,32,0.0,0.0,68,0.00,,,0.02,Wunderground PWS Mod,2013-05-15 01:03:00,
2013-05-14 21:08:00,40.3,30.9,29.96,NNE,32,0.0,0.0,69,0.00,,,0.02,Wunderground PWS Mod,2013-05-15 01:08:00,
2013-05-14 21:14:00,39.8,30.8,29.96,NNE,32,0.0,1.0,70,0.00,,,0.02,Wunderground PWS Mod,2013-05-15 01:14:00,
2013-05-14 21:20:00,37.8,29.9,29.97,NNE,23,0.0,1.0,73,0.00,,,0.02,Wunderground PWS Mod,2013-05-15 01:20:00,
2013-05-14 21:23:00,38.8,29.8,29.97,NNE,32,0.0,1.0,70,0.00,,,0.02,Wunderground PWS Mod,2013-05-15 01:23:00,
2013-05-14 21:28:00,38.3,30.1,29.97,NNE,32,0.0,1.0,72,0.00,,,0.02,Wunderground PWS Mod,2013-05-15 01:28:00,
2013-05-14 21:38:00,37.8,29.9,29.97,NNE,32,0.0,1.0,73,0.00,,,0.02,Wunderground PWS Mod,2013-05-15 01:38:00,
2013-05-14 21:43:00,37.2,29.3,29.97,NNE,32,0.0,1.0,73,0.00,,,0.02,Wunderground PWS Mod,2013-05-15 01:43:00,
2013-05-14 21:45:00,36.0,29.2,29.98,NNE,23,0.0,1.0,76,0.00,,,0.02,Wunderground PWS Mod,2013-05-15 01:45:00,
2013-05-14 21:53:00,36.5,29.3,29.97,NNE,32,0.0,1.0,75,0.00,,,0.02,Wunderground PWS Mod,2013-05-15 01:53:00,
2013-05-14 21:58:00,36.3,29.5,29.97,NNE,32,0.0,1.0,76,0.00,,,0.02,Wunderground PWS Mod,2013-05-15 01:58:00,
2013-05-14 22:03:00,36.2,29.4,29.97,NNE,32,0.0,1.0,76,0.00,,,0.02,Wunderground PWS Mod,2013-05-15 02:03:00,
2013-05-14 22:08:00,35.9,29.1,29.98,NNE,32,0.0,1.0,76,0.00,,,0.02,Wunderground PWS Mod,2013-05-15 02:08:00,
2013-05-14 22:14:00,35.8,29.3,29.98,NNE,32,0.0,1.0,77,0.00,,,0.02,Wunderground PWS Mod,2013-05-15 02:14:00,
2013-05-14 22:15:00,34.4,28.9,29.98,N/A,-737280,0.0,0.0,80,0.00,,,0.02,Wunderground PWS Mod,2013-05-15 02:15:00,
2013-05-14 22:23:00,35.3,29.1,29.97,NNE,32,0.0,1.0,78,0.00,,,0.02,Wunderground PWS Mod,2013-05-15 02:23:00,
2013-05-14 22:28:00,35.0,29.1,29.97,NNE,32,0.0,1.0,79,0.00,,,0.02,Wunderground PWS Mod,2013-05-15 02:28:00,
2013-05-14 22:38:00,34.4,28.9,29.98,NNE,32,0.0,1.0,80,0.00,,,0.02,Wunderground PWS Mod,2013-05-15 02:38:00,
2013-05-14 22:43:00,34.1,28.9,29.98,NNE,32,0.0,0.0,81,0.00,,,0.02,Wunderground PWS Mod,2013-05-15 02:43:00,
2013-05-14 22:53:00,33.8,28.9,29.98,NNE,32,0.0,0.0,82,0.00,,,0.02,Wunderground PWS Mod,2013-05-15 02:53:00,
2013-05-14 22:55:00,33.1,28.8,29.98,N/A,-737280,0.0,0.0,84,0.00,,,0.02,Wunderground PWS Mod,2013-05-15 02:55:00,
2013-05-14 23:03:00,33.4,28.8,29.98,NNE,32,0.0,0.0,83,0.00,,,0.02,Wunderground PWS Mod,2013-05-15 03:03:00,
2013-05-14 23:08:00,33.1,28.8,29.98,NNE,32,0.0,0.0,84,0.00,,,0.02,Wunderground PWS Mod,2013-05-15 03:08:00,
2013-05-14 23:14:00,32.8,28.8,29.98,NNE,32,0.0,0.0,85,0.00,,,0.02,Wunderground PWS Mod,2013-05-15 03:14:00,
2013-05-14 23:15:00,31.8,28.1,29.98,NNE,23,0.0,1.0,86,0.00,,,0.02,Wunderground PWS Mod,2013-05-15 03:15:00,
2013-05-14 23:23:00,32.4,28.4,29.98,NNE,32,0.0,0.0,85,0.00,,,0.02,Wunderground PWS Mod,2013-05-15 03:23:00,
2013-05-14 23:28:00,32.1,28.1,29.98,NNE,32,0.0,0.0,85,0.00,,,0.02,Wunderground PWS Mod,2013-05-15 03:28:00,
2013-05-14 23:33:00,31.9,28.2,29.98,NNE,32,0.0,0.0,86,0.00,,,0.02,Wunderground PWS Mod,2013-05-15 03:33:00,
2013-05-14 23:38:00,31.8,28.1,29.98,NNE,32,0.0,0.0,86,0.00,,,0.02,Wunderground PWS Mod,2013-05-15 03:38:00,
2013-05-14 23:43:00,31.5,27.8,29.98,NNE,32,0.0,1.0,86,0.00,,,0.02,Wunderground PWS Mod,2013-05-15 03:43:00,
2013-05-14 23:53:00,31.2,28.1,29.99,NNE,32,0.0,1.0,88,0.00,,,0.02,Wunderground PWS Mod,2013-05-15 03:53:00,